createdAt,value
2019-05-10T00:02:55.152Z,9.95
2019-05-10T00:08:18.238Z,9.96
2019-05-10T00:13:25.705Z,9.84
2019-05-10T00:18:30.992Z,9.86
2019-05-10T00:23:36.224Z,9.84
2019-05-10T00:28:41.512Z,9.80
2019-05-10T00:33:46.830Z,9.77
2019-05-10T00:38:52.072Z,9.61
2019-05-10T00:43:59.870Z,9.64
2019-05-10T00:49:05.523Z,9.59
2019-05-10T00:54:10.775Z,9.52
2019-05-10T00:59:16.399Z,9.54
2019-05-10T01:04:21.733Z,9.27
2019-05-10T01:09:26.951Z,9.30
2019-05-10T01:14:32.224Z,9.43
2019-05-10T01:19:37.439Z,9.45
2019-05-10T01:24:42.891Z,9.48
2019-05-10T01:29:48.158Z,9.36
2019-05-10T01:34:53.489Z,9.28
2019-05-10T01:39:58.765Z,9.23
2019-05-10T01:45:03.984Z,9.15
2019-05-10T01:50:09.280Z,9.19
2019-05-10T01:55:14.856Z,9.13
2019-05-10T02:00:20.471Z,9.03
2019-05-10T02:05:25.820Z,9.03
2019-05-10T02:10:31.227Z,8.95
2019-05-10T02:15:36.584Z,8.91
2019-05-10T02:20:42.146Z,8.88
2019-05-10T02:25:47.476Z,8.79
2019-05-10T02:30:52.721Z,8.82
2019-05-10T02:35:57.973Z,8.77
2019-05-10T02:41:03.212Z,8.70
2019-05-10T02:46:08.752Z,8.68
2019-05-10T02:51:13.967Z,8.65
2019-05-10T02:56:30.444Z,8.60
2019-05-10T03:01:30.670Z,8.66
2019-05-10T03:06:36.637Z,8.60
2019-05-10T03:11:49.624Z,8.66
2019-05-10T03:16:55.257Z,8.69
2019-05-10T03:22:06.475Z,8.69
2019-05-10T03:27:12.631Z,8.70
2019-05-10T03:32:17.938Z,8.68
2019-05-10T03:37:23.250Z,8.56
2019-05-10T03:42:28.891Z,8.47
2019-05-10T03:47:34.654Z,8.44
2019-05-10T03:52:39.873Z,8.39
2019-05-10T03:57:45.161Z,8.32
2019-05-10T04:02:50.767Z,8.39
2019-05-10T04:07:56.003Z,8.32
2019-05-10T04:13:01.240Z,8.39
2019-05-10T04:18:06.531Z,8.39
2019-05-10T04:23:11.766Z,8.39
2019-05-10T04:28:17.309Z,8.44
2019-05-10T04:33:22.614Z,8.48
2019-05-10T04:38:27.870Z,8.50
2019-05-10T04:43:33.177Z,8.68
2019-05-10T04:48:38.775Z,8.83
2019-05-10T04:53:44.053Z,8.90
2019-05-10T04:58:49.373Z,8.95
2019-05-10T05:03:55.564Z,8.95
2019-05-10T05:09:00.790Z,9.01
2019-05-10T05:14:09.461Z,9.22
2019-05-10T05:19:13.548Z,9.26
2019-05-10T05:24:22.868Z,9.43
2019-05-10T05:29:26.097Z,9.43
2019-05-10T05:34:32.264Z,9.55
2019-05-10T05:39:37.766Z,9.76
2019-05-10T05:44:43.004Z,9.91
2019-05-10T05:49:48.264Z,10.01
2019-05-10T05:54:57.445Z,10.15
2019-05-10T06:00:04.119Z,10.24
2019-05-10T06:05:07.584Z,10.32
2019-05-10T06:10:17.339Z,10.54
2019-05-10T06:15:23.142Z,11.16
2019-05-10T06:20:26.878Z,11.45
2019-05-10T06:25:39.257Z,11.34
2019-05-10T06:30:39.065Z,11.44
2019-05-10T06:35:44.426Z,12.03
2019-05-10T06:40:49.670Z,12.03
2019-05-10T06:45:55.843Z,12.23
2019-05-10T06:51:03.078Z,12.29
2019-05-10T06:56:08.389Z,12.29
2019-05-10T07:01:13.941Z,12.54
2019-05-10T07:06:19.302Z,12.62
2019-05-10T07:11:24.535Z,12.93
2019-05-10T07:16:29.997Z,13.08
2019-05-10T07:21:38.982Z,13.33
2019-05-10T07:26:43.482Z,13.48
2019-05-10T07:31:48.827Z,12.92
2019-05-10T07:36:54.417Z,13.12
2019-05-10T07:42:00.273Z,13.16
2019-05-10T07:47:06.834Z,13.08
2019-05-10T07:52:12.081Z,13.24
2019-05-10T07:57:18.514Z,13.99
2019-05-10T08:02:24.617Z,13.65
2019-05-10T08:07:29.847Z,14.13
2019-05-10T08:12:41.528Z,14.36
2019-05-10T08:17:45.561Z,15.13
2019-05-10T08:22:49.859Z,14.52
2019-05-10T08:27:55.536Z,14.15
2019-05-10T08:33:09.119Z,14.28
2019-05-10T08:38:07.925Z,14.46
2019-05-10T08:43:16.672Z,14.12
2019-05-10T08:48:20.071Z,13.87
2019-05-10T08:53:25.432Z,14.19
2019-05-10T08:58:32.456Z,14.31
2019-05-10T09:03:37.677Z,14.35
2019-05-10T09:08:43.360Z,14.87
2019-05-10T09:13:49.919Z,14.47
2019-05-10T09:18:55.413Z,14.89
2019-05-10T09:24:04.885Z,15.32
2019-05-10T09:29:08.369Z,15.68
2019-05-10T09:34:13.617Z,16.01
2019-05-10T09:39:24.310Z,15.94
2019-05-10T09:44:25.906Z,15.62
2019-05-10T09:49:33.251Z,15.53
2019-05-10T09:54:38.261Z,15.45
2019-05-10T09:59:43.424Z,15.51
2019-05-10T10:04:48.733Z,15.02
2019-05-10T10:09:54.022Z,14.95
2019-05-10T10:15:00.658Z,15.11
2019-05-10T10:20:08.424Z,15.54
2019-05-10T10:25:13.533Z,15.55
2019-05-10T10:30:21.538Z,15.93
2019-05-10T10:35:27.606Z,15.90
2019-05-10T10:40:35.385Z,15.52
2019-05-10T10:45:40.017Z,15.19
2019-05-10T10:50:51.231Z,15.50
2019-05-10T10:55:54.267Z,16.08
2019-05-10T11:00:59.268Z,16.66
2019-05-10T11:06:05.054Z,16.95
2019-05-10T11:11:10.643Z,17.78
2019-05-10T11:16:16.020Z,18.41
2019-05-10T11:21:23.328Z,18.23
2019-05-10T11:26:32.803Z,18.71
2019-05-10T11:31:35.260Z,18.69
2019-05-10T11:36:45.782Z,19.16
2019-05-10T11:41:53.105Z,18.73
2019-05-10T11:46:54.423Z,18.74
2019-05-10T11:52:01.680Z,18.32
2019-05-10T11:57:12.829Z,18.51
2019-05-10T12:02:33.792Z,18.34
2019-05-10T12:07:26.850Z,18.02
2019-05-10T12:12:45.279Z,18.26
2019-05-10T12:17:35.758Z,20.87
2019-05-10T12:22:47.206Z,21.12
2019-05-10T12:27:51.460Z,21.49
2019-05-10T12:32:57.143Z,22.51
2019-05-10T12:38:03.225Z,22.79
2019-05-10T12:43:10.745Z,23.49
2019-05-10T12:48:16.529Z,24.15
2019-05-10T12:53:21.761Z,25.74
2019-05-10T12:58:27.040Z,24.65
2019-05-10T13:04:54.380Z,25.60
2019-05-10T13:10:03.987Z,24.47
2019-05-10T13:15:17.400Z,22.48
2019-05-10T13:20:24.248Z,21.63
2019-05-10T13:25:29.798Z,20.82
2019-05-10T13:30:35.045Z,20.26
2019-05-10T13:35:40.276Z,20.54
2019-05-10T13:40:47.832Z,20.62
2019-05-10T13:45:53.526Z,22.88
2019-05-10T13:51:00.484Z,21.31
2019-05-10T13:56:05.792Z,24.55
2019-05-10T14:01:13.216Z,22.05
2019-05-10T14:06:18.390Z,21.25
2019-05-10T14:11:23.954Z,21.05
2019-05-10T14:16:29.450Z,22.52
2019-05-10T14:21:34.785Z,25.16
2019-05-10T14:26:40.053Z,24.14
2019-05-10T14:31:45.295Z,22.53
2019-05-10T14:36:50.721Z,21.30
2019-05-10T14:41:57.326Z,20.26
2019-05-10T14:47:05.823Z,19.76
2019-05-10T14:52:11.818Z,19.24
2019-05-10T14:57:17.183Z,20.37
2019-05-10T15:02:24.926Z,19.40
2019-05-10T15:07:29.908Z,18.91
2019-05-10T15:12:35.357Z,18.68
2019-05-10T15:17:40.797Z,18.45
2019-05-10T15:22:46.201Z,18.19
2019-05-10T15:27:54.711Z,17.66
2019-05-10T15:32:59.053Z,17.79
2019-05-10T15:38:04.730Z,17.84
2019-05-10T15:43:16.696Z,17.65
2019-05-10T15:48:17.781Z,17.84
2019-05-10T15:53:25.459Z,17.82
2019-05-10T15:59:23.775Z,17.72
2019-05-10T16:03:37.061Z,17.69
2019-05-10T16:08:42.984Z,17.60
2019-05-10T16:13:48.193Z,17.48
2019-05-10T16:18:53.413Z,17.43
2019-05-10T16:23:58.972Z,17.72
2019-05-10T16:29:04.206Z,17.76
2019-05-10T16:34:09.527Z,17.70
2019-05-10T16:39:14.759Z,17.63
2019-05-10T16:44:21.031Z,17.24
2019-05-10T16:49:26.579Z,17.13
2019-05-10T16:54:31.938Z,17.09
2019-05-10T16:59:37.605Z,16.96
2019-05-10T17:04:42.946Z,16.91
2019-05-10T17:09:52.816Z,16.96
2019-05-10T17:14:56.510Z,16.87
2019-05-10T17:20:07.339Z,16.62
2019-05-10T17:30:27.769Z,16.37
2019-05-10T17:35:36.529Z,16.27
2019-05-10T17:40:42.299Z,16.28
2019-05-10T17:45:47.186Z,16.21
2019-05-10T17:50:52.479Z,16.34
2019-05-10T17:56:02.557Z,16.32
2019-05-10T18:01:04.812Z,16.19
2019-05-10T18:06:22.974Z,16.03
2019-05-10T18:11:17.737Z,15.79
2019-05-10T18:16:23.297Z,15.66
2019-05-10T18:21:28.510Z,15.62
2019-05-10T18:26:39.064Z,15.56
2019-05-10T18:31:41.364Z,15.41
2019-05-10T18:36:51.657Z,15.28
2019-05-10T18:41:53.891Z,15.22
2019-05-10T18:46:59.292Z,14.88
2019-05-10T18:52:06.626Z,14.81
2019-05-10T18:57:18.769Z,14.62
2019-05-10T19:02:19.984Z,14.42
2019-05-10T19:07:26.054Z,14.21
2019-05-10T19:12:31.597Z,14.00
2019-05-10T19:17:40.324Z,13.82
2019-05-10T19:22:44.289Z,13.69
2019-05-10T19:27:50.777Z,13.58
2019-05-10T19:32:58.086Z,13.31
2019-05-10T19:38:03.491Z,13.19
2019-05-10T19:43:08.834Z,13.15
2019-05-10T19:48:14.195Z,13.14
2019-05-10T19:53:19.439Z,13.10
2019-05-10T19:58:26.609Z,12.87
2019-05-10T20:03:33.183Z,12.81
2019-05-10T20:08:38.424Z,12.67
2019-05-10T20:13:44.536Z,12.53
2019-05-10T20:18:49.870Z,12.57
2019-05-10T20:23:55.422Z,12.71
2019-05-10T20:29:00.756Z,12.55
2019-05-10T20:34:05.993Z,12.55
2019-05-10T20:39:11.451Z,12.56
2019-05-10T20:44:18.370Z,12.55
2019-05-10T20:49:23.647Z,12.51
2019-05-10T20:54:31.073Z,12.51
2019-05-10T20:59:36.927Z,12.35
2019-05-10T21:04:42.697Z,12.26
2019-05-10T21:09:48.025Z,12.29
2019-05-10T21:14:54.659Z,12.39
2019-05-10T21:20:00.851Z,12.36
2019-05-10T21:25:06.904Z,12.38
2019-05-10T21:30:12.611Z,12.20
2019-05-10T21:35:17.872Z,12.18
2019-05-10T21:40:23.386Z,12.07
2019-05-10T21:45:28.722Z,11.93
2019-05-10T21:50:37.305Z,11.97
2019-05-10T21:55:43.728Z,12.13
2019-05-10T22:00:54.457Z,12.11
2019-05-10T22:06:01.725Z,11.92
2019-05-10T22:11:07.041Z,11.95
2019-05-10T22:16:12.908Z,12.13
2019-05-10T22:21:18.264Z,12.11
2019-05-10T22:26:23.638Z,12.19
2019-05-10T22:31:29.153Z,12.13
2019-05-10T22:36:35.039Z,11.99
2019-05-10T22:41:40.387Z,12.03
2019-05-10T22:46:45.970Z,12.06
2019-05-10T22:51:51.711Z,12.12
2019-05-10T22:56:57.550Z,12.07
2019-05-10T23:02:03.469Z,12.05
2019-05-10T23:07:10.466Z,12.08
2019-05-10T23:12:15.825Z,11.80
2019-05-10T23:17:21.089Z,11.72
2019-05-10T23:22:26.395Z,11.65
2019-05-10T23:27:32.133Z,11.57
2019-05-10T23:32:37.488Z,11.56
2019-05-10T23:37:45.087Z,11.67
2019-05-10T23:42:50.381Z,11.65
2019-05-10T23:47:56.899Z,11.58
2019-05-10T23:53:02.257Z,11.58
2019-05-10T23:58:07.527Z,11.62
